LIPZLIMA

Guest
Details From LIPZ - Venezia Tessera
To LIMA - Torino Aeritalia
Flight Number -
Tags Generated
Created
Modified
Stats Distance 202 nm / 373 km
Max Altitude 0 ft / 0 m
Waypoints 2
Social Downloads 0
Likes 0
Share VATSIM

Download

Looking for another format? Having issues loading an existing format? Contact us
Advertisement - Login to hide

Notes

Generated

Route

LIPZ LIMA

ID Type Via Altitude Latitude Longitude Leg Dist Tot Dist Heading (true) Name
O LIPZ APT - 0 ft / 0 m 45.49516˚ 12.33556˚ - 0 nm - -
O LIMA APT - 0 ft / 0 m 45.08560˚ 7.60041˚ 201 nm 201 nm 265° / 261° Torino Aeritalia

Altitude Profile

Advertisement - Login to hide

Weather


0- 5 10 15 20 25 30 35+ Temperature / ° C

Clouds and Precipitation
Forecast for 2018-05-27 12:00 UTC. Updated an hour ago

Ground ~20,000 ft ~40,000 ft Winds

LIPZ

Details ICAO LIPZ (VCE)
Name Venezia Tessera
Region Italy
Timezone Europe/Rome (UTC+2.0)
Stats Elevation 7 ft / 2 m (AMSL)
Location 45.504791° 12.349691°
Runways 2
Magnetic Variation 3.230° E

METAR

LIPZ 271020Z 15004KT CAVOK 26/17 Q1018 NOSIG

Decode

TAF

TAF LIPZ 270500Z 2706/2812 04008KT 9999 FEW040 BECMG 2708/2711 14010KT BECMG 2716/2719 VRB05KT BECMG 2810/2812 14010KT

Decode

Departure Runways

ID Width Length Bearing (true) Bearing (mag) Surface Threshold Offset Overrun Length
04L 148 ft / 45 m 9,112 ft / 2,777 m 42.01° 38.78° Asphalt 312 ft / 95 m 0 ft / 0 m
04R 148 ft / 45 m 10,834 ft / 3,302 m 41.99° 38.76° Asphalt 0 ft / 0 m 0 ft / 0 m
22L 148 ft / 45 m 10,834 ft / 3,302 m 222.01° 218.78° Asphalt 0 ft / 0 m 0 ft / 0 m
22R 148 ft / 45 m 9,112 ft / 2,777 m 222.02° 218.79° Asphalt 0 ft / 0 m 0 ft / 0 m

LIMA

Details ICAO LIMA
Name Torino Aeritalia
Region Italy
Timezone Europe/Rome (UTC+2.0)
Stats Elevation 943 ft / 287 m (AMSL)
Location 45.085639° 7.604223°
Runways 2
Magnetic Variation 2.163° E

METAR

LIMA 270950Z 00000KT 9999 SCT030 25/14 Q1020

Decode

TAF

Not found

Destination Runways

ID Width Length Bearing (true) Bearing (mag) Surface Threshold Offset Overrun Length
10L 98 ft / 30 m 3,515 ft / 1,071 m 101.44° 99.28° Asphalt 0 ft / 0 m 0 ft / 0 m
10R 131 ft / 40 m 2,452 ft / 747 m 101.56° 99.40° Grass 0 ft / 0 m 0 ft / 0 m
28L 131 ft / 40 m 2,452 ft / 747 m 281.57° 279.41° Grass 0 ft / 0 m 0 ft / 0 m
28R 98 ft / 30 m 3,515 ft / 1,071 m 281.45° 279.29° Asphalt 820 ft / 250 m 0 ft / 0 m